sensor_id;sensor_type;location;lat;lon;timestamp;P1;durP1;ratioP1;P2;durP2;ratioP2
10987;SDS011;5547;42.672;23.230;2022-12-26T00:00:45;90.57;;;45.53;;
10987;SDS011;5547;42.672;23.230;2022-12-26T00:03:46;89.80;;;45.63;;
10987;SDS011;5547;42.672;23.230;2022-12-26T00:06:46;89.80;;;45.70;;
10987;SDS011;5547;42.672;23.230;2022-12-26T00:09:46;95.53;;;50.57;;
10987;SDS011;5547;42.672;23.230;2022-12-26T00:12:47;94.47;;;49.07;;
10987;SDS011;5547;42.672;23.230;2022-12-26T00:15:47;93.43;;;47.77;;
10987;SDS011;5547;42.672;23.230;2022-12-26T00:18:48;86.67;;;45.40;;
10987;SDS011;5547;42.672;23.230;2022-12-26T00:21:48;87.37;;;43.13;;
10987;SDS011;5547;42.672;23.230;2022-12-26T00:24:48;86.90;;;43.15;;
10987;SDS011;5547;42.672;23.230;2022-12-26T00:27:49;82.55;;;42.08;;
10987;SDS011;5547;42.672;23.230;2022-12-26T00:30:49;81.17;;;41.20;;
10987;SDS011;5547;42.672;23.230;2022-12-26T00:33:50;82.33;;;41.63;;
10987;SDS011;5547;42.672;23.230;2022-12-26T00:36:51;83.22;;;41.50;;
10987;SDS011;5547;42.672;23.230;2022-12-26T00:39:51;79.43;;;39.97;;
10987;SDS011;5547;42.672;23.230;2022-12-26T00:42:51;78.50;;;39.23;;
10987;SDS011;5547;42.672;23.230;2022-12-26T00:45:52;76.27;;;38.70;;
10987;SDS011;5547;42.672;23.230;2022-12-26T00:48:52;77.17;;;39.10;;
10987;SDS011;5547;42.672;23.230;2022-12-26T00:51:53;82.45;;;40.42;;
10987;SDS011;5547;42.672;23.230;2022-12-26T00:54:53;82.43;;;40.77;;
10987;SDS011;5547;42.672;23.230;2022-12-26T00:57:54;84.13;;;42.20;;
10987;SDS011;5547;42.672;23.230;2022-12-26T01:00:54;87.70;;;44.97;;
10987;SDS011;5547;42.672;23.230;2022-12-26T01:03:55;88.10;;;46.25;;
10987;SDS011;5547;42.672;23.230;2022-12-26T01:06:56;89.80;;;45.90;;
10987;SDS011;5547;42.672;23.230;2022-12-26T01:09:57;94.00;;;47.97;;
10987;SDS011;5547;42.672;23.230;2022-12-26T01:12:57;91.73;;;46.30;;
10987;SDS011;5547;42.672;23.230;2022-12-26T01:15:57;89.00;;;44.50;;
10987;SDS011;5547;42.672;23.230;2022-12-26T01:18:58;86.80;;;44.03;;
10987;SDS011;5547;42.672;23.230;2022-12-26T01:21:58;88.27;;;44.43;;
10987;SDS011;5547;42.672;23.230;2022-12-26T01:24:59;83.13;;;42.83;;
10987;SDS011;5547;42.672;23.230;2022-12-26T01:27:59;81.23;;;42.20;;
10987;SDS011;5547;42.672;23.230;2022-12-26T01:31:03;81.37;;;42.23;;
10987;SDS011;5547;42.672;23.230;2022-12-26T01:34:04;80.00;;;42.13;;
10987;SDS011;5547;42.672;23.230;2022-12-26T01:37:05;82.97;;;42.63;;
10987;SDS011;5547;42.672;23.230;2022-12-26T01:40:05;80.00;;;41.27;;
10987;SDS011;5547;42.672;23.230;2022-12-26T01:43:08;78.07;;;39.45;;
10987;SDS011;5547;42.672;23.230;2022-12-26T01:46:11;75.88;;;38.78;;
10987;SDS011;5547;42.672;23.230;2022-12-26T01:52:15;77.68;;;38.40;;
10987;SDS011;5547;42.672;23.230;2022-12-26T01:55:21;73.93;;;37.40;;
10987;SDS011;5547;42.672;23.230;2022-12-26T01:58:23;76.45;;;38.15;;
10987;SDS011;5547;42.672;23.230;2022-12-26T02:01:30;76.20;;;37.35;;
10987;SDS011;5547;42.672;23.230;2022-12-26T02:04:35;77.70;;;37.43;;
10987;SDS011;5547;42.672;23.230;2022-12-26T02:07:58;75.00;;;36.70;;
10987;SDS011;5547;42.672;23.230;2022-12-26T02:11:24;74.60;;;36.92;;
10987;SDS011;5547;42.672;23.230;2022-12-26T02:14:31;76.68;;;37.28;;
10987;SDS011;5547;42.672;23.230;2022-12-26T02:17:32;74.63;;;37.10;;
10987;SDS011;5547;42.672;23.230;2022-12-26T02:20:37;76.30;;;36.50;;
10987;SDS011;5547;42.672;23.230;2022-12-26T02:23:59;75.00;;;36.20;;
10987;SDS011;5547;42.672;23.230;2022-12-26T02:34:15;70.65;;;35.10;;
10987;SDS011;5547;42.672;23.230;2022-12-26T02:44:55;73.28;;;36.00;;
10987;SDS011;5547;42.672;23.230;2022-12-26T02:48:36;70.93;;;35.60;;
10987;SDS011;5547;42.672;23.230;2022-12-26T02:51:56;74.60;;;36.42;;
10987;SDS011;5547;42.672;23.230;2022-12-26T02:55:19;74.53;;;38.25;;
10987;SDS011;5547;42.672;23.230;2022-12-26T03:03:24;73.78;;;37.55;;
10987;SDS011;5547;42.672;23.230;2022-12-26T03:06:22;103.25;;;38.67;;
10987;SDS011;5547;42.672;23.230;2022-12-26T03:09:46;78.63;;;38.20;;
10987;SDS011;5547;42.672;23.230;2022-12-26T03:13:26;73.88;;;36.80;;
10987;SDS011;5547;42.672;23.230;2022-12-26T03:16:32;79.72;;;39.20;;
10987;SDS011;5547;42.672;23.230;2022-12-26T03:19:58;77.53;;;38.97;;
10987;SDS011;5547;42.672;23.230;2022-12-26T03:23:06;75.47;;;37.95;;
10987;SDS011;5547;42.672;23.230;2022-12-26T03:26:11;72.85;;;37.40;;
10987;SDS011;5547;42.672;23.230;2022-12-26T03:29:34;77.77;;;37.80;;
10987;SDS011;5547;42.672;23.230;2022-12-26T03:32:54;76.75;;;37.53;;
10987;SDS011;5547;42.672;23.230;2022-12-26T03:35:56;74.30;;;36.65;;
10987;SDS011;5547;42.672;23.230;2022-12-26T03:42:08;78.03;;;38.20;;
10987;SDS011;5547;42.672;23.230;2022-12-26T03:52:35;82.97;;;42.03;;
10987;SDS011;5547;42.672;23.230;2022-12-26T03:56:22;82.63;;;41.42;;
10987;SDS011;5547;42.672;23.230;2022-12-26T03:59:56;79.90;;;40.83;;
10987;SDS011;5547;42.672;23.230;2022-12-26T04:03:25;84.60;;;42.00;;
10987;SDS011;5547;42.672;23.230;2022-12-26T04:06:49;83.63;;;41.72;;
10987;SDS011;5547;42.672;23.230;2022-12-26T04:10:15;83.05;;;42.03;;
10987;SDS011;5547;42.672;23.230;2022-12-26T04:13:53;88.93;;;44.28;;
10987;SDS011;5547;42.672;23.230;2022-12-26T04:17:32;90.90;;;44.33;;
10987;SDS011;5547;42.672;23.230;2022-12-26T04:20:59;88.07;;;44.20;;
10987;SDS011;5547;42.672;23.230;2022-12-26T04:24:30;89.10;;;44.35;;
10987;SDS011;5547;42.672;23.230;2022-12-26T04:27:55;87.00;;;43.38;;
10987;SDS011;5547;42.672;23.230;2022-12-26T04:31:16;88.15;;;43.78;;
10987;SDS011;5547;42.672;23.230;2022-12-26T04:38:23;87.50;;;43.38;;
10987;SDS011;5547;42.672;23.230;2022-12-26T04:41:47;94.43;;;46.83;;
10987;SDS011;5547;42.672;23.230;2022-12-26T04:45:08;99.65;;;49.25;;
10987;SDS011;5547;42.672;23.230;2022-12-26T04:48:11;105.28;;;49.20;;
10987;SDS011;5547;42.672;23.230;2022-12-26T04:51:30;95.32;;;48.63;;
10987;SDS011;5547;42.672;23.230;2022-12-26T04:54:30;95.03;;;48.67;;
10987;SDS011;5547;42.672;23.230;2022-12-26T04:57:31;102.95;;;50.25;;
10987;SDS011;5547;42.672;23.230;2022-12-26T05:00:31;108.17;;;51.03;;
10987;SDS011;5547;42.672;23.230;2022-12-26T05:03:31;97.30;;;48.47;;
10987;SDS011;5547;42.672;23.230;2022-12-26T05:06:50;94.27;;;47.70;;
10987;SDS011;5547;42.672;23.230;2022-12-26T05:10:14;96.72;;;48.45;;
10987;SDS011;5547;42.672;23.230;2022-12-26T05:13:17;93.65;;;46.00;;
10987;SDS011;5547;42.672;23.230;2022-12-26T05:16:17;92.70;;;47.30;;
10987;SDS011;5547;42.672;23.230;2022-12-26T05:19:36;100.45;;;48.50;;
10987;SDS011;5547;42.672;23.230;2022-12-26T05:22:55;103.95;;;48.75;;
10987;SDS011;5547;42.672;23.230;2022-12-26T05:26:19;102.68;;;48.97;;
10987;SDS011;5547;42.672;23.230;2022-12-26T05:29:40;100.65;;;48.33;;
10987;SDS011;5547;42.672;23.230;2022-12-26T05:32:41;92.15;;;45.50;;
10987;SDS011;5547;42.672;23.230;2022-12-26T05:35:59;86.85;;;43.03;;
10987;SDS011;5547;42.672;23.230;2022-12-26T05:39:00;83.70;;;41.37;;
10987;SDS011;5547;42.672;23.230;2022-12-26T05:42:00;84.25;;;40.60;;
10987;SDS011;5547;42.672;23.230;2022-12-26T05:45:01;81.23;;;39.60;;
10987;SDS011;5547;42.672;23.230;2022-12-26T05:48:01;80.93;;;39.50;;
10987;SDS011;5547;42.672;23.230;2022-12-26T05:51:02;86.23;;;40.20;;
10987;SDS011;5547;42.672;23.230;2022-12-26T05:54:03;86.03;;;41.30;;
10987;SDS011;5547;42.672;23.230;2022-12-26T05:57:04;84.90;;;41.03;;
10987;SDS011;5547;42.672;23.230;2022-12-26T06:00:04;90.07;;;42.17;;
10987;SDS011;5547;42.672;23.230;2022-12-26T06:03:05;83.70;;;40.60;;
10987;SDS011;5547;42.672;23.230;2022-12-26T06:06:05;83.57;;;40.67;;
10987;SDS011;5547;42.672;23.230;2022-12-26T06:09:06;184.55;;;41.53;;
10987;SDS011;5547;42.672;23.230;2022-12-26T06:12:07;77.83;;;38.30;;
10987;SDS011;5547;42.672;23.230;2022-12-26T06:15:07;80.17;;;38.93;;
10987;SDS011;5547;42.672;23.230;2022-12-26T06:18:08;81.45;;;39.60;;
10987;SDS011;5547;42.672;23.230;2022-12-26T06:21:13;89.73;;;42.73;;
10987;SDS011;5547;42.672;23.230;2022-12-26T06:24:15;97.83;;;46.20;;
10987;SDS011;5547;42.672;23.230;2022-12-26T06:27:15;92.82;;;47.20;;
10987;SDS011;5547;42.672;23.230;2022-12-26T06:30:16;96.87;;;45.50;;
10987;SDS011;5547;42.672;23.230;2022-12-26T06:33:16;101.30;;;49.50;;
10987;SDS011;5547;42.672;23.230;2022-12-26T06:36:18;97.72;;;49.67;;
10987;SDS011;5547;42.672;23.230;2022-12-26T06:39:21;103.20;;;51.83;;
10987;SDS011;5547;42.672;23.230;2022-12-26T06:42:22;96.03;;;51.42;;
10987;SDS011;5547;42.672;23.230;2022-12-26T06:45:22;95.67;;;48.33;;
10987;SDS011;5547;42.672;23.230;2022-12-26T06:48:23;103.67;;;50.87;;
10987;SDS011;5547;42.672;23.230;2022-12-26T06:51:25;96.55;;;49.22;;
10987;SDS011;5547;42.672;23.230;2022-12-26T06:54:28;92.95;;;49.45;;
10987;SDS011;5547;42.672;23.230;2022-12-26T06:57:28;94.43;;;48.80;;
10987;SDS011;5547;42.672;23.230;2022-12-26T07:00:29;95.90;;;49.13;;
10987;SDS011;5547;42.672;23.230;2022-12-26T07:03:30;100.87;;;53.50;;
10987;SDS011;5547;42.672;23.230;2022-12-26T07:06:32;95.10;;;49.45;;
10987;SDS011;5547;42.672;23.230;2022-12-26T07:09:33;97.78;;;49.78;;
10987;SDS011;5547;42.672;23.230;2022-12-26T07:12:34;95.43;;;49.37;;
10987;SDS011;5547;42.672;23.230;2022-12-26T07:15:34;95.27;;;49.13;;
10987;SDS011;5547;42.672;23.230;2022-12-26T07:18:34;96.27;;;49.07;;
10987;SDS011;5547;42.672;23.230;2022-12-26T07:21:35;91.03;;;47.63;;
10987;SDS011;5547;42.672;23.230;2022-12-26T07:24:35;94.57;;;48.77;;
10987;SDS011;5547;42.672;23.230;2022-12-26T07:27:36;93.93;;;48.33;;
10987;SDS011;5547;42.672;23.230;2022-12-26T07:30:36;102.57;;;53.78;;
10987;SDS011;5547;42.672;23.230;2022-12-26T07:33:37;104.53;;;52.83;;
10987;SDS011;5547;42.672;23.230;2022-12-26T07:36:38;110.35;;;51.63;;
10987;SDS011;5547;42.672;23.230;2022-12-26T07:39:39;100.57;;;48.70;;
10987;SDS011;5547;42.672;23.230;2022-12-26T07:42:39;96.20;;;47.97;;
10987;SDS011;5547;42.672;23.230;2022-12-26T07:45:39;99.57;;;47.93;;
10987;SDS011;5547;42.672;23.230;2022-12-26T07:48:40;94.80;;;47.17;;
10987;SDS011;5547;42.672;23.230;2022-12-26T07:51:40;98.70;;;49.17;;
10987;SDS011;5547;42.672;23.230;2022-12-26T07:54:41;99.53;;;50.55;;
10987;SDS011;5547;42.672;23.230;2022-12-26T07:57:42;99.03;;;50.67;;
10987;SDS011;5547;42.672;23.230;2022-12-26T08:00:42;105.07;;;52.00;;
10987;SDS011;5547;42.672;23.230;2022-12-26T08:03:43;98.20;;;50.37;;
10987;SDS011;5547;42.672;23.230;2022-12-26T08:06:44;124.70;;;63.63;;
10987;SDS011;5547;42.672;23.230;2022-12-26T08:09:45;93.65;;;47.53;;
10987;SDS011;5547;42.672;23.230;2022-12-26T08:12:45;89.55;;;45.75;;
10987;SDS011;5547;42.672;23.230;2022-12-26T08:15:46;87.88;;;46.03;;
10987;SDS011;5547;42.672;23.230;2022-12-26T08:18:46;90.35;;;46.45;;
10987;SDS011;5547;42.672;23.230;2022-12-26T08:21:46;108.45;;;50.80;;
10987;SDS011;5547;42.672;23.230;2022-12-26T08:24:47;124.47;;;56.58;;
10987;SDS011;5547;42.672;23.230;2022-12-26T08:27:47;92.90;;;49.25;;
10987;SDS011;5547;42.672;23.230;2022-12-26T08:30:48;95.85;;;49.25;;
10987;SDS011;5547;42.672;23.230;2022-12-26T08:33:49;95.53;;;48.63;;
10987;SDS011;5547;42.672;23.230;2022-12-26T08:36:50;87.17;;;44.83;;
10987;SDS011;5547;42.672;23.230;2022-12-26T08:39:51;89.20;;;44.90;;
10987;SDS011;5547;42.672;23.230;2022-12-26T08:42:52;94.85;;;46.35;;
10987;SDS011;5547;42.672;23.230;2022-12-26T08:45:59;83.85;;;43.22;;
10987;SDS011;5547;42.672;23.230;2022-12-26T08:49:01;82.82;;;42.70;;
10987;SDS011;5547;42.672;23.230;2022-12-26T08:52:02;81.90;;;41.33;;
10987;SDS011;5547;42.672;23.230;2022-12-26T08:55:02;88.73;;;43.97;;
10987;SDS011;5547;42.672;23.230;2022-12-26T08:58:03;87.72;;;44.80;;
10987;SDS011;5547;42.672;23.230;2022-12-26T09:01:04;102.80;;;47.35;;
10987;SDS011;5547;42.672;23.230;2022-12-26T09:04:09;90.00;;;46.83;;
10987;SDS011;5547;42.672;23.230;2022-12-26T09:07:10;107.50;;;49.67;;
10987;SDS011;5547;42.672;23.230;2022-12-26T09:10:10;94.20;;;49.83;;
10987;SDS011;5547;42.672;23.230;2022-12-26T09:13:10;96.67;;;51.13;;
10987;SDS011;5547;42.672;23.230;2022-12-26T09:16:16;104.93;;;55.73;;
10987;SDS011;5547;42.672;23.230;2022-12-26T09:19:19;109.25;;;58.40;;
10987;SDS011;5547;42.672;23.230;2022-12-26T09:22:20;111.93;;;61.13;;
10987;SDS011;5547;42.672;23.230;2022-12-26T09:25:39;121.07;;;67.70;;
10987;SDS011;5547;42.672;23.230;2022-12-26T09:28:39;120.90;;;68.90;;
10987;SDS011;5547;42.672;23.230;2022-12-26T09:31:40;123.65;;;69.32;;
10987;SDS011;5547;42.672;23.230;2022-12-26T09:34:41;118.60;;;65.87;;
10987;SDS011;5547;42.672;23.230;2022-12-26T09:37:41;110.10;;;59.97;;
10987;SDS011;5547;42.672;23.230;2022-12-26T09:40:52;106.90;;;59.70;;
10987;SDS011;5547;42.672;23.230;2022-12-26T09:47:31;107.15;;;57.50;;
10987;SDS011;5547;42.672;23.230;2022-12-26T09:50:34;103.93;;;56.58;;
10987;SDS011;5547;42.672;23.230;2022-12-26T09:53:39;103.38;;;56.47;;
10987;SDS011;5547;42.672;23.230;2022-12-26T09:56:42;97.15;;;52.90;;
10987;SDS011;5547;42.672;23.230;2022-12-26T09:59:53;97.65;;;52.72;;
10987;SDS011;5547;42.672;23.230;2022-12-26T10:02:57;97.20;;;52.53;;
10987;SDS011;5547;42.672;23.230;2022-12-26T10:09:24;100.35;;;53.05;;
10987;SDS011;5547;42.672;23.230;2022-12-26T10:13:03;100.37;;;53.90;;
10987;SDS011;5547;42.672;23.230;2022-12-26T10:16:19;97.32;;;53.63;;
10987;SDS011;5547;42.672;23.230;2022-12-26T10:19:36;101.20;;;54.30;;
10987;SDS011;5547;42.672;23.230;2022-12-26T10:26:33;99.63;;;54.30;;
10987;SDS011;5547;42.672;23.230;2022-12-26T10:30:03;103.30;;;54.42;;
10987;SDS011;5547;42.672;23.230;2022-12-26T10:33:10;102.03;;;55.20;;
10987;SDS011;5547;42.672;23.230;2022-12-26T10:36:17;103.88;;;55.10;;
10987;SDS011;5547;42.672;23.230;2022-12-26T10:46:28;108.55;;;56.38;;
10987;SDS011;5547;42.672;23.230;2022-12-26T10:49:32;107.93;;;57.30;;
10987;SDS011;5547;42.672;23.230;2022-12-26T10:52:33;106.87;;;56.83;;
10987;SDS011;5547;42.672;23.230;2022-12-26T10:55:38;109.93;;;57.33;;
10987;SDS011;5547;42.672;23.230;2022-12-26T10:58:38;107.20;;;58.17;;
10987;SDS011;5547;42.672;23.230;2022-12-26T11:01:40;110.68;;;58.40;;
10987;SDS011;5547;42.672;23.230;2022-12-26T11:05:21;107.43;;;58.03;;
10987;SDS011;5547;42.672;23.230;2022-12-26T11:08:27;108.15;;;57.97;;
10987;SDS011;5547;42.672;23.230;2022-12-26T11:11:34;105.13;;;56.08;;
10987;SDS011;5547;42.672;23.230;2022-12-26T11:14:44;104.65;;;55.47;;
10987;SDS011;5547;42.672;23.230;2022-12-26T11:17:46;102.03;;;54.78;;
10987;SDS011;5547;42.672;23.230;2022-12-26T11:20:50;105.10;;;56.67;;
10987;SDS011;5547;42.672;23.230;2022-12-26T11:23:52;108.45;;;57.80;;
10987;SDS011;5547;42.672;23.230;2022-12-26T11:27:15;109.57;;;56.95;;
10987;SDS011;5547;42.672;23.230;2022-12-26T11:33:42;110.30;;;59.45;;
10987;SDS011;5547;42.672;23.230;2022-12-26T11:36:45;115.07;;;60.58;;
10987;SDS011;5547;42.672;23.230;2022-12-26T11:39:49;110.15;;;59.53;;
10987;SDS011;5547;42.672;23.230;2022-12-26T11:42:51;108.75;;;59.45;;
10987;SDS011;5547;42.672;23.230;2022-12-26T11:45:56;117.53;;;61.05;;
10987;SDS011;5547;42.672;23.230;2022-12-26T11:48:56;119.30;;;60.20;;
10987;SDS011;5547;42.672;23.230;2022-12-26T11:51:57;119.20;;;60.17;;
10987;SDS011;5547;42.672;23.230;2022-12-26T11:54:59;112.28;;;57.58;;
10987;SDS011;5547;42.672;23.230;2022-12-26T12:01:11;111.30;;;57.20;;
10987;SDS011;5547;42.672;23.230;2022-12-26T12:04:14;108.95;;;57.03;;
10987;SDS011;5547;42.672;23.230;2022-12-26T12:07:23;110.60;;;56.78;;
10987;SDS011;5547;42.672;23.230;2022-12-26T12:13:58;106.13;;;56.05;;
10987;SDS011;5547;42.672;23.230;2022-12-26T12:17:13;108.50;;;55.57;;
10987;SDS011;5547;42.672;23.230;2022-12-26T12:26:54;107.07;;;55.60;;
10987;SDS011;5547;42.672;23.230;2022-12-26T12:50:37;99.47;;;50.10;;
10987;SDS011;5547;42.672;23.230;2022-12-26T12:53:49;100.60;;;49.77;;
10987;SDS011;5547;42.672;23.230;2022-12-26T13:00:46;98.43;;;48.67;;
10987;SDS011;5547;42.672;23.230;2022-12-26T13:03:57;95.38;;;48.22;;
10987;SDS011;5547;42.672;23.230;2022-12-26T13:07:10;95.30;;;48.58;;
10987;SDS011;5547;42.672;23.230;2022-12-26T13:10:21;95.78;;;47.75;;
10987;SDS011;5547;42.672;23.230;2022-12-26T13:16:53;102.05;;;49.60;;
10987;SDS011;5547;42.672;23.230;2022-12-26T13:23:48;98.95;;;48.85;;
10987;SDS011;5547;42.672;23.230;2022-12-26T13:27:20;95.88;;;48.55;;
10987;SDS011;5547;42.672;23.230;2022-12-26T13:30:24;95.95;;;47.85;;
10987;SDS011;5547;42.672;23.230;2022-12-26T13:33:25;94.90;;;47.33;;
10987;SDS011;5547;42.672;23.230;2022-12-26T13:36:59;92.28;;;46.35;;
10987;SDS011;5547;42.672;23.230;2022-12-26T13:39:57;98.23;;;48.03;;
10987;SDS011;5547;42.672;23.230;2022-12-26T13:43:00;96.13;;;47.00;;
10987;SDS011;5547;42.672;23.230;2022-12-26T13:46:34;90.50;;;46.15;;
10987;SDS011;5547;42.672;23.230;2022-12-26T13:49:36;97.30;;;47.85;;
10987;SDS011;5547;42.672;23.230;2022-12-26T13:52:39;94.57;;;47.08;;
10987;SDS011;5547;42.672;23.230;2022-12-26T13:55:41;96.45;;;47.30;;
10987;SDS011;5547;42.672;23.230;2022-12-26T14:08:26;94.13;;;46.75;;
10987;SDS011;5547;42.672;23.230;2022-12-26T14:15:23;98.97;;;48.85;;
10987;SDS011;5547;42.672;23.230;2022-12-26T14:21:51;93.10;;;46.47;;
10987;SDS011;5547;42.672;23.230;2022-12-26T14:25:07;91.15;;;44.90;;
10987;SDS011;5547;42.672;23.230;2022-12-26T14:28:26;93.23;;;45.83;;
10987;SDS011;5547;42.672;23.230;2022-12-26T14:41:16;85.32;;;42.38;;
10987;SDS011;5547;42.672;23.230;2022-12-26T14:50:39;87.40;;;42.07;;
10987;SDS011;5547;42.672;23.230;2022-12-26T15:00:39;83.90;;;40.80;;
10987;SDS011;5547;42.672;23.230;2022-12-26T15:18:05;81.22;;;39.50;;
10987;SDS011;5547;42.672;23.230;2022-12-26T15:24:14;83.35;;;40.75;;
10987;SDS011;5547;42.672;23.230;2022-12-26T15:34:16;87.55;;;43.78;;
10987;SDS011;5547;42.672;23.230;2022-12-26T16:01:01;81.93;;;38.30;;
10987;SDS011;5547;42.672;23.230;2022-12-26T16:04:02;81.23;;;38.33;;
10987;SDS011;5547;42.672;23.230;2022-12-26T16:07:20;81.97;;;38.25;;
10987;SDS011;5547;42.672;23.230;2022-12-26T16:10:33;88.88;;;41.50;;
10987;SDS011;5547;42.672;23.230;2022-12-26T16:13:35;83.03;;;39.78;;
10987;SDS011;5547;42.672;23.230;2022-12-26T16:16:36;85.68;;;40.90;;
10987;SDS011;5547;42.672;23.230;2022-12-26T16:19:37;90.10;;;42.97;;
10987;SDS011;5547;42.672;23.230;2022-12-26T16:22:39;96.75;;;46.83;;
10987;SDS011;5547;42.672;23.230;2022-12-26T16:25:47;93.32;;;45.13;;
10987;SDS011;5547;42.672;23.230;2022-12-26T16:28:49;93.97;;;48.10;;
10987;SDS011;5547;42.672;23.230;2022-12-26T16:31:51;105.40;;;52.20;;
10987;SDS011;5547;42.672;23.230;2022-12-26T16:34:51;91.25;;;45.92;;
10987;SDS011;5547;42.672;23.230;2022-12-26T16:37:52;80.18;;;39.90;;
10987;SDS011;5547;42.672;23.230;2022-12-26T16:40:56;81.90;;;39.67;;
10987;SDS011;5547;42.672;23.230;2022-12-26T16:44:05;85.75;;;41.88;;
10987;SDS011;5547;42.672;23.230;2022-12-26T16:47:29;79.38;;;39.47;;
10987;SDS011;5547;42.672;23.230;2022-12-26T16:50:30;87.47;;;46.75;;
10987;SDS011;5547;42.672;23.230;2022-12-26T16:56:36;85.10;;;41.15;;
10987;SDS011;5547;42.672;23.230;2022-12-26T16:59:38;80.60;;;40.10;;
10987;SDS011;5547;42.672;23.230;2022-12-26T17:02:44;79.82;;;39.35;;
10987;SDS011;5547;42.672;23.230;2022-12-26T17:05:46;77.13;;;39.10;;
10987;SDS011;5547;42.672;23.230;2022-12-26T17:08:47;82.37;;;40.63;;
10987;SDS011;5547;42.672;23.230;2022-12-26T17:14:52;82.50;;;40.03;;
10987;SDS011;5547;42.672;23.230;2022-12-26T17:17:54;83.10;;;39.97;;
10987;SDS011;5547;42.672;23.230;2022-12-26T17:20:59;81.15;;;39.78;;
10987;SDS011;5547;42.672;23.230;2022-12-26T17:24:20;82.85;;;39.33;;
10987;SDS011;5547;42.672;23.230;2022-12-26T17:27:24;88.95;;;42.45;;
10987;SDS011;5547;42.672;23.230;2022-12-26T17:30:26;87.30;;;42.03;;
10987;SDS011;5547;42.672;23.230;2022-12-26T17:33:29;87.03;;;43.35;;
10987;SDS011;5547;42.672;23.230;2022-12-26T17:36:32;92.65;;;43.17;;
10987;SDS011;5547;42.672;23.230;2022-12-26T17:39:33;86.65;;;42.88;;
10987;SDS011;5547;42.672;23.230;2022-12-26T17:42:53;93.63;;;44.37;;
10987;SDS011;5547;42.672;23.230;2022-12-26T17:45:55;92.82;;;46.83;;
10987;SDS011;5547;42.672;23.230;2022-12-26T17:48:56;94.77;;;47.53;;
10987;SDS011;5547;42.672;23.230;2022-12-26T17:51:56;95.63;;;48.10;;
10987;SDS011;5547;42.672;23.230;2022-12-26T17:54:56;91.78;;;47.03;;
10987;SDS011;5547;42.672;23.230;2022-12-26T17:57:57;93.03;;;46.03;;
10987;SDS011;5547;42.672;23.230;2022-12-26T18:00:57;89.97;;;46.17;;
10987;SDS011;5547;42.672;23.230;2022-12-26T18:03:58;88.73;;;45.47;;
10987;SDS011;5547;42.672;23.230;2022-12-26T18:06:58;90.00;;;45.53;;
10987;SDS011;5547;42.672;23.230;2022-12-26T18:09:59;88.47;;;44.80;;
10987;SDS011;5547;42.672;23.230;2022-12-26T18:13:01;90.43;;;45.08;;
10987;SDS011;5547;42.672;23.230;2022-12-26T18:16:02;90.83;;;46.80;;
10987;SDS011;5547;42.672;23.230;2022-12-26T18:19:03;89.35;;;45.17;;
10987;SDS011;5547;42.672;23.230;2022-12-26T18:22:09;93.67;;;47.13;;
10987;SDS011;5547;42.672;23.230;2022-12-26T18:25:12;95.70;;;49.33;;
10987;SDS011;5547;42.672;23.230;2022-12-26T18:28:16;98.07;;;51.43;;
10987;SDS011;5547;42.672;23.230;2022-12-26T18:31:17;93.22;;;47.63;;
10987;SDS011;5547;42.672;23.230;2022-12-26T18:34:18;95.67;;;46.87;;
10987;SDS011;5547;42.672;23.230;2022-12-26T18:37:19;91.33;;;46.00;;
10987;SDS011;5547;42.672;23.230;2022-12-26T18:43:24;101.45;;;48.50;;
10987;SDS011;5547;42.672;23.230;2022-12-26T18:46:25;101.33;;;47.70;;
10987;SDS011;5547;42.672;23.230;2022-12-26T18:49:26;98.85;;;47.38;;
10987;SDS011;5547;42.672;23.230;2022-12-26T18:52:27;95.72;;;46.80;;
10987;SDS011;5547;42.672;23.230;2022-12-26T18:55:27;96.43;;;47.10;;
10987;SDS011;5547;42.672;23.230;2022-12-26T18:58:28;96.90;;;45.83;;
10987;SDS011;5547;42.672;23.230;2022-12-26T19:01:28;90.07;;;45.57;;
10987;SDS011;5547;42.672;23.230;2022-12-26T19:04:28;86.80;;;44.40;;
10987;SDS011;5547;42.672;23.230;2022-12-26T19:07:29;88.85;;;44.28;;
10987;SDS011;5547;42.672;23.230;2022-12-26T19:10:31;93.80;;;44.95;;
10987;SDS011;5547;42.672;23.230;2022-12-26T19:13:33;93.85;;;45.17;;
10987;SDS011;5547;42.672;23.230;2022-12-26T19:16:37;86.40;;;43.90;;
10987;SDS011;5547;42.672;23.230;2022-12-26T19:19:38;85.83;;;43.97;;
10987;SDS011;5547;42.672;23.230;2022-12-26T19:22:39;87.38;;;43.35;;
10987;SDS011;5547;42.672;23.230;2022-12-26T19:25:39;86.40;;;43.23;;
10987;SDS011;5547;42.672;23.230;2022-12-26T19:28:39;85.27;;;42.67;;
10987;SDS011;5547;42.672;23.230;2022-12-26T19:31:40;86.17;;;42.30;;
10987;SDS011;5547;42.672;23.230;2022-12-26T19:34:41;89.07;;;43.42;;
10987;SDS011;5547;42.672;23.230;2022-12-26T19:37:41;90.70;;;44.00;;
10987;SDS011;5547;42.672;23.230;2022-12-26T19:40:42;93.17;;;46.23;;
10987;SDS011;5547;42.672;23.230;2022-12-26T19:43:43;102.32;;;51.70;;
10987;SDS011;5547;42.672;23.230;2022-12-26T19:46:43;98.27;;;50.37;;
10987;SDS011;5547;42.672;23.230;2022-12-26T19:49:44;96.90;;;49.07;;
10987;SDS011;5547;42.672;23.230;2022-12-26T19:52:44;93.47;;;47.80;;
10987;SDS011;5547;42.672;23.230;2022-12-26T19:55:45;94.70;;;47.40;;
10987;SDS011;5547;42.672;23.230;2022-12-26T19:58:45;97.00;;;48.72;;
10987;SDS011;5547;42.672;23.230;2022-12-26T20:01:46;99.97;;;50.45;;
10987;SDS011;5547;42.672;23.230;2022-12-26T20:04:47;98.07;;;50.63;;
10987;SDS011;5547;42.672;23.230;2022-12-26T20:07:47;101.28;;;51.90;;
10987;SDS011;5547;42.672;23.230;2022-12-26T20:10:48;100.53;;;53.47;;
10987;SDS011;5547;42.672;23.230;2022-12-26T20:13:48;98.53;;;51.27;;
10987;SDS011;5547;42.672;23.230;2022-12-26T20:16:49;98.97;;;50.67;;
10987;SDS011;5547;42.672;23.230;2022-12-26T20:19:53;93.88;;;49.00;;
10987;SDS011;5547;42.672;23.230;2022-12-26T20:22:53;98.27;;;49.20;;
10987;SDS011;5547;42.672;23.230;2022-12-26T20:25:56;96.40;;;49.63;;
10987;SDS011;5547;42.672;23.230;2022-12-26T20:28:58;95.80;;;49.40;;
10987;SDS011;5547;42.672;23.230;2022-12-26T20:32:00;120.70;;;62.63;;
10987;SDS011;5547;42.672;23.230;2022-12-26T20:35:01;113.63;;;57.63;;
10987;SDS011;5547;42.672;23.230;2022-12-26T20:38:01;127.65;;;66.43;;
10987;SDS011;5547;42.672;23.230;2022-12-26T20:41:02;127.65;;;64.03;;
10987;SDS011;5547;42.672;23.230;2022-12-26T20:44:03;118.78;;;60.35;;
10987;SDS011;5547;42.672;23.230;2022-12-26T20:47:03;106.13;;;54.17;;
10987;SDS011;5547;42.672;23.230;2022-12-26T20:50:04;106.97;;;54.63;;
10987;SDS011;5547;42.672;23.230;2022-12-26T20:53:05;104.70;;;54.33;;
10987;SDS011;5547;42.672;23.230;2022-12-26T20:56:05;103.07;;;54.33;;
10987;SDS011;5547;42.672;23.230;2022-12-26T20:59:06;106.53;;;55.75;;
10987;SDS011;5547;42.672;23.230;2022-12-26T21:02:08;106.55;;;57.13;;
10987;SDS011;5547;42.672;23.230;2022-12-26T21:05:10;117.15;;;61.65;;
10987;SDS011;5547;42.672;23.230;2022-12-26T21:08:10;113.20;;;61.07;;
10987;SDS011;5547;42.672;23.230;2022-12-26T21:11:15;113.07;;;58.47;;
10987;SDS011;5547;42.672;23.230;2022-12-26T21:14:18;111.63;;;57.67;;
10987;SDS011;5547;42.672;23.230;2022-12-26T21:17:20;118.68;;;59.78;;
10987;SDS011;5547;42.672;23.230;2022-12-26T21:20:20;110.15;;;56.78;;